Jorge Miranda

Chefscout - Sporting CP
3 Dez 2028
Sonntag
Verarbeitung

Persönlichkeit

Anpassungsfähigkeit (10) Ehrgeiz (6) Kontroverse (1) Loyalität (14) Druck (5) Professionalität (1) Fairness (6) Temperament (4)

Profil

Trainerstil Demokratisch
Lizenz Kontinentale B
Entschlossenheit 13
Menschenführung 8
Motivation 11
Disziplin 8
Arbeitszufriedenheit
100%
Ermüdung
0%
Rolle Chefscout
Gehalt 90.9K p/W
Vertrag 14.03.2029

Leistung

Verhalten Gut
Trainingseffektivität
54%
Spielerentwicklung
35%
Verletzungsprävention
40%
Taktische Umsetzung
60%

Letzte Ereignisse

Nahm an einer Scouting-Besprechung teil jetzt
Empfahl ein Transferziel jetzt
Empfahl ein Transferziel jetzt
Empfahl ein Transferziel jetzt
Empfahl ein Transferziel jetzt
Empfahl ein Transferziel 7T her
Empfahl ein Transferziel 7T her
Spiel beobachtet 7T her

Aktuell beobachtet

189
Spieler Verein Status Fähigkeit Vertrauen Beobachtet Zuletzt beobachtet Letzte Stimme
Lautaro Dufur Juventud Aktiv 102 / 104 40% 1 30.08.2028 -
Matias Siltanen Malmo FF Aktiv 129 / 136 40% 1 30.08.2028 -
Felipe Varela Trujillanos Aktiv 92 / 100 40% 1 30.08.2028 -
Matias Siltanen Malmo FF Verloren 129 / 130 40% 1 21.08.2028 -
Ayyoub Bouaddi Stoke City Aktiv 151 / 165 40% 1 21.08.2028 -
Sebastian Rodriguez Houston Dynamo Aktiv 116 / 119 40% 1 21.08.2028 -
Riquelme Thompson-Jones Accrington Stanley Aktiv 114 / 118 40% 4 07.08.2028 -
Christos Mouzakitis Hull City Aktiv 141 / 152 40% 3 07.08.2028 -
Hosea Michael Remo Stars Aktiv 90 / 105 40% 1 07.08.2028 -
Jan Bürger Northampton Town Verloren 124 / 131 40% 2 31.07.2028 -
Lamine Bèye Portimonense Aktiv 115 / 129 40% 1 31.07.2028 -
Kauã Moraes Flamengo Verloren 130 / 133 40% 3 24.07.2028 -
Ayden Heaven Portsmouth Aktiv 150 / 155 40% 2 24.07.2028 -
Edison Gruezo Guadalajara Aktiv 109 / 118 40% 1 17.07.2028 -
Fletcher Boyd Accrington Stanley Aktiv 107 / 121 40% 1 17.07.2028 -
Cristian Carrara Guidonia Montecelio Aktiv 106 / 117 40% 1 17.07.2028 -
Honest Ahanor Atalanta Aktiv 139 / 148 40% 2 10.07.2028 -
Mathias De Amorim Famalicao Verloren 139 / 147 95% 1 26.06.2028 -
Fernando Penafiel Aktiv 130 / 125 95% 1 12.06.2028 Befürworten
Roberto Fernández Braga Aktiv 149 / 153 40% 1 12.06.2028 -
Largie Ramazani Leeds United Aktiv 149 / 150 40% 1 12.06.2028 -
Rodrigo Pinheiro Famalicao Aktiv 135 / 132 95% 1 04.06.2028 Befürworten
Jakub Kamiński Nacional Verloren 145 / 147 95% 1 03.06.2028 -
Roberto Fernández Braga Verloren 149 / 146 40% 26 02.06.2028 -
Yassir Zabiri Stade Rennais Verloren 144 / 137 40% 12 02.06.2028 -
Giorgos Vagiannidis Farense Verloren 136 / 136 95% 1 01.06.2028 -
Savinho Tottenham Aktiv 163 / 162 40% 3 31.05.2028 -
Alex Scott Bournemouth Aktiv 157 / 156 40% 3 30.05.2028 -
William Osula Wrexham Aktiv 138 / 135 40% 16 30.05.2028 -
Tyler Fletcher Rotherham United Aktiv 112 / 125 40% 4 30.05.2028 -
Trey Nyoni Rotherham United Aktiv 139 / 144 40% 1 30.05.2028 -
Sorriso Famalicao Verloren 138 / 139 40% 12 25.05.2028 -
Bradley Barcola Liverpool Aktiv 169 / 163 40% 11 25.05.2028 -
Hugo Ekitiké Liverpool Aktiv 171 / 170 40% 12 24.05.2028 -
Sebastiano Esposito Cagliari Aktiv 148 / 140 40% 4 24.05.2028 -
Mohamed-Ali Cho Hull City Aktiv 145 / 144 40% 27 23.05.2028 -
Malick Fofana Sunderland Aktiv 153 / 159 40% 5 23.05.2028 -
Thiago Brentford Aktiv 154 / 150 40% 5 23.05.2028 -
Lamare Bogarde Reading Aktiv 141 / 138 40% 2 23.05.2028 -
Rodrigo Muniz Fulham Aktiv 145 / 149 40% 12 20.05.2028 -
João Pedro Chelsea Aktiv 158 / 151 40% 20 19.05.2028 -
Jack McGlynn Stoke City Aktiv 140 / 139 40% 3 19.05.2028 -
Stanley Mills Crewe Alexandra Aktiv 129 / 121 40% 2 19.05.2028 -
Gabriel Martinelli Arsenal Aktiv 170 / 168 40% 16 17.05.2028 -
Chemsdine Talbi Sunderland Aktiv 151 / 157 40% 2 17.05.2028 -
Benjamin Šeško Manchester United Aktiv 161 / 157 40% 15 15.05.2028 -
Jayden Danns Bradford City Aktiv 139 / 146 40% 6 09.05.2028 -
Fábio Carvalho Brentford Aktiv 148 / 143 40% 11 06.05.2028 -
Désiré Doué Stade Brestois Aktiv 167 / 159 40% 6 05.05.2028 -
Abdoul Ouattara Port Vale Aktiv 136 / 137 40% 6 03.05.2028 -
Andrey Santos Bolton Wanderers Aktiv 148 / 153 40% 1 01.05.2028 -
Nicolas Jackson Aston Villa Aktiv 155 / 148 40% 8 18.04.2028 -
Florian Wirtz Liverpool Aktiv 178 / 171 40% 2 18.04.2028 -
José Manuel López Palmeiras Aktiv 140 / 138 40% 5 14.04.2028 -
Yanis Begraoui Estoril Praia Aktiv 143 / 139 40% 11 09.04.2028 -
Georginio Rutter Brighton Aktiv 155 / 150 40% 28 01.04.2028 -
Luca Koleosho Paris FC Aktiv 140 / 144 40% 3 31.03.2028 -
Emanuel Emegha Chelsea Aktiv 147 / 144 40% 10 26.03.2028 -
Evann Guessand Aston Villa Aktiv 152 / 152 40% 5 26.03.2028 -
Ben Gannon Doak Charlton Athletic Aktiv 151 / 146 40% 3 22.03.2028 -
Gustavo Neves Bragantino Aktiv 129 / 118 40% 5 16.03.2028 -
Lucas Assadi AIK Aktiv 134 / 126 40% 2 16.03.2028 -
Agustín Giay Palmeiras Aktiv 136 / 133 40% 1 16.03.2028 -
Kevin Schade Chelsea Aktiv 156 / 158 40% 4 12.03.2028 -
Vasil Kušej Slavia Prague Aktiv 143 / 134 40% 5 10.03.2028 -
Josh Nichols Oldham Athletic Aktiv 121 / 128 40% 1 08.03.2028 -
Luca Williams-Barnett Walsall Aktiv 123 / 135 40% 1 03.03.2028 -
Breno Bidon Corinthians Aktiv 130 / 133 40% 4 28.02.2028 -
Liel Abada Inter Miami CF Aktiv 140 / 126 40% 7 25.02.2028 -
Iliman N'Diaye Everton Aktiv 164 / 167 40% 4 18.02.2028 -
Cauan Barros Flamengo Aktiv 132 / 132 40% 5 17.02.2028 -
Ferran Torres Paris Saint-Germain Aktiv 171 / 172 40% 1 06.02.2028 -
Stanis Idumbo AC Ajaccio Aktiv 138 / 138 40% 3 31.01.2028 -
Daniel Karlsbakk Sarpsborg 08 Aktiv 131 / 122 40% 1 28.01.2028 -
Xavi Simons Tottenham Aktiv 163 / 156 40% 3 27.01.2028 -
Diego Luna Real Salt Lake Aktiv 130 / 141 40% 1 24.01.2028 -
Victor Lind Hammarby Aktiv 130 / 136 40% 1 23.01.2028 -
Victor Hugo Atlético Mineiro Aktiv 130 / 135 40% 3 21.01.2028 -
Alex Luna Instituto Aktiv 133 / 134 40% 3 13.01.2028 -
Víctor Gómez Braga Aktiv 145 / 153 40% 2 12.01.2028 -
Martín Zubimendi Arsenal Aktiv 169 / 168 40% 1 12.01.2028 -
Bitello Universidad de Chile Aktiv 135 / 135 68% 1 01.01.2028 Befürworten
Amadou Onana Aston Villa Aktiv 160 / 154 40% 3 31.12.2027 -
Matteo Ruggeri Middlesbrough Aktiv 157 / 154 40% 1 31.12.2027 -
Mateus Mané Burnley Aktiv 139 / 154 40% 5 30.08.2027 -
Mathys Tel Tottenham Aktiv 148 / 159 40% 6 30.08.2027 -
Agustín Ruberto River Plate Aktiv 121 / 139 40% 1 26.08.2027 -
Siyabonga Mabena Bidvest Wits Aktiv 117 / 125 40% 1 22.08.2027 -
Stefanos Tzimas Brighton Aktiv 140 / 147 40% 1 21.08.2027 -
Bénie Traoré New York City Aktiv 128 / 122 40% 4 20.08.2027 -
Wesley AS Roma Aktiv 153 / 162 40% 2 20.08.2027 -
Bjorn Meijer Sampdoria Aktiv 130 / 122 40% 1 20.08.2027 -
Alexander Aravena Portland Timbers Aktiv 129 / 132 40% 4 19.08.2027 -
Giorgi Kvernadze Frosinone Aktiv 131 / 132 40% 2 19.08.2027 -
Jeff Ekhator Juventus Aktiv 134 / 147 40% 15 16.08.2027 -
Eli Junior Kroupi Bournemouth Aktiv 143 / 150 40% 1 14.08.2027 -
Eduardo Lozano Botafogo Aktiv 143 / 157 40% 2 13.08.2027 -
Andrés Gómez Vasco da Gama Aktiv 138 / 132 40% 1 12.08.2027 -
Babis Kostoulas Oxford United Aktiv 138 / 142 40% 1 12.08.2027 -
Rodrigo Gomes Wolverhampton Aktiv 144 / 138 40% 3 09.08.2027 -
Toby Collyer West Bromwich Albion Aktiv 137 / 143 40% 1 09.08.2027 -
Leo Castledine Middlesbrough Aktiv 132 / 141 40% 11 07.08.2027 -
Martin Baturina Como Aktiv 145 / 138 40% 1 06.08.2027 -
Fer López Wolverhampton Aktiv 140 / 140 40% 1 06.08.2027 -
Ilyas Ansah Hull City Aktiv 136 / 137 40% 5 03.08.2027 -
Ezekiel Kwame Alladoh Philadelphia Union Aktiv 117 / 130 40% 1 03.08.2027 -
Liam Delap Manchester United Aktiv 150 / 157 40% 1 02.08.2027 -
Max Johnston Derby County Aktiv 134 / 126 40% 2 01.08.2027 -
Andre Brooks Sheffield United Aktiv 133 / 130 40% 2 30.07.2027 -
Jacques Ekomié Wrexham Aktiv 135 / 137 40% 2 30.07.2027 -
Caspar Jander Southampton Aktiv 136 / 128 40% 1 25.07.2027 -
Mohamadou Kanté Crawley Town Aktiv 119 / 134 40% 1 25.07.2027 -
Shea Charles Southampton Aktiv 142 / 135 40% 4 23.07.2027 -
Bongani Zungu Ajax Cape Town Aktiv 131 / 128 40% 2 23.07.2027 -
Bosun Lawal Stoke City Aktiv 131 / 136 40% 1 23.07.2027 -
Deniz Gül Galatasaray Aktiv 132 / 117 40% 7 17.07.2027 -
Franculino Brighton Aktiv 143 / 141 40% 1 17.07.2027 -
Sayed Abu Farchi Maccabi Tel Aviv Aktiv 121 / 122 40% 1 16.07.2027 -
Jay Stansfield Birmingham Aktiv 131 / 130 40% 1 13.07.2027 -
Ethan Williams Peterborough United Aktiv 115 / 126 40% 1 07.07.2027 -
Markus Jensen Nacional Aktiv 111 / 118 40% 1 22.06.2027 -
Rafael Moreno Atletico Venezuela Aktiv 110 / 113 40% 1 22.06.2027 -
Nordi Mukiele Sunderland Aktiv 147 / 144 40% 1 18.06.2027 -
James Garner Everton Aktiv 152 / 145 40% 1 18.06.2027 -
Noussair Mazraoui Manchester United Aktiv 155 / 153 40% 1 16.06.2027 -
Maxence Lacroix Chelsea Aktiv 152 / 146 40% 2 15.06.2027 -
Óscar Mingueza Crystal Palace Aktiv 154 / 143 40% 2 15.06.2027 -
Jarrad Branthwaite Everton Aktiv 155 / 158 40% 1 14.06.2027 -
Nicolò Tresoldi Club Brugge Aktiv 133 / 133 40% 12 26.05.2027 -
Younes Ebnoutalib Eintracht Frankfurt Aktiv 133 / 139 40% 4 25.05.2027 -
Rafiu Durosinmi Racing Genk Aktiv 133 / 126 40% 7 20.05.2027 -
Pablo Felipe West Ham United Aktiv 135 / 141 40% 7 13.05.2027 -
Josh Keeley Luton Town Aktiv 127 / 130 40% 1 02.05.2027 -
Ryan Oné Sheffield United Aktiv 113 / 122 40% 1 29.04.2027 -
Marvin Keller Chelsea Aktiv 143 / 146 40% 1 28.04.2027 -
Sławomir Abramowicz Jagiellonia Aktiv 124 / 124 40% 1 23.04.2027 -
Jakub Badžgoň MSK Zilina Aktiv 103 / 114 40% 1 18.04.2027 -
Robin Roefs Sunderland Aktiv 145 / 141 40% 1 18.04.2027 -
Juan Diego Castillo Vitoria Guimaraes Aktiv 122 / 116 40% 1 18.04.2027 -
James Trafford Leeds United Aktiv 143 / 154 40% 1 17.04.2027 -
Joe Gelhardt Hull City Aktiv 132 / 123 40% 4 08.04.2027 -
Sindre Walle Egeli Udinese Aktiv 131 / 129 40% 2 07.04.2027 -
Leandro Brey Boca Juniors Aktiv 122 / 121 40% 1 05.04.2027 -
Antonio Gomis Vizela Aktiv 124 / 123 40% 1 05.04.2027 -
Gabriel Silva Braga Aktiv 132 / 133 40% 1 11.03.2027 -
Morgan Rogers Chelsea Aktiv 156 / 152 40% 3 09.03.2027 -
Rocco Vata Watford Aktiv 122 / 120 40% 1 07.03.2027 -
Giacomo Raspadori Atalanta Aktiv 150 / 152 40% 1 11.01.2027 -
Jacob Ramsey Newcastle United Aktiv 150 / 150 40% 1 04.01.2027 -
Mason Mount Manchester United Aktiv 150 / 160 40% 2 02.01.2027 -
Yeremy Pino Crystal Palace Aktiv 152 / 148 40% 2 02.01.2027 -
Roberto Alvarado Borussia Mönchengladbach Aktiv 139 / 139 66% 1 01.01.2027 Befürworten
Ismaïla Sarr Crystal Palace Aktiv 152 / 150 40% 1 31.12.2026 -
Vinícius Lopes Santa Clara Aktiv 122 / 130 40% 3 24.12.2026 -
Rafael Navarro Famalicao Aktiv 124 / 116 40% 4 23.12.2026 -
Gustavo Silva Vitoria Guimaraes Aktiv 121 / 117 40% 2 20.12.2026 -
Kevin Fulham Aktiv 148 / 148 40% 1 20.12.2026 -
Boubacar Kamara Aston Villa Aktiv 165 / 158 40% 1 20.12.2026 -
Wilson Isidor Sunderland Aktiv 138 / 140 40% 4 17.12.2026 -
Henrique Araújo Casa Pia Aktiv 124 / 120 40% 1 14.12.2026 -
Manor Solomon West Ham United Aktiv 140 / 129 40% 1 11.12.2026 -
Carlos Álvarez Club America Aktiv 140 / 141 40% 1 08.12.2026 -
Tyrese Campbell Sheffield United Aktiv 127 / 123 40% 3 01.12.2026 -
Yousef Salech Cardiff City Aktiv 129 / 129 40% 2 23.11.2026 -
Jadon Sancho Manchester United Aktiv 147 / 152 40% 3 20.11.2026 -
Sota Kitano Red Bull Salzburg Aktiv 121 / 126 40% 1 16.11.2026 -
Marcus Edwards Burnley Aktiv 136 / 142 40% 1 13.11.2026 -
Alexis Mac Allister Liverpool Aktiv 162 / 159 40% 1 03.11.2026 -
Alejandro Piedrahita Deportivo Pereira Aktiv 120 / 133 40% 3 28.10.2026 -
Alexis Cuello San Lorenzo Aktiv 129 / 140 40% 1 25.10.2026 -
Talles Magno New York City Aktiv 129 / 129 40% 5 24.10.2026 -
Noni Madueke Arsenal Aktiv 151 / 146 40% 1 19.10.2026 -
Eddie Nketiah Crystal Palace Aktiv 138 / 141 40% 1 15.10.2026 -
Matt O'Riley Brighton Aktiv 146 / 147 40% 1 12.10.2026 -
Manu Koné AS Roma Aktiv 161 / 151 40% 1 12.10.2026 -
Jesus Ferreira Seattle Sounders Aktiv 126 / 142 40% 1 03.10.2026 -
Wessam Abou Ali Columbus Crew Aktiv 133 / 135 40% 5 02.10.2026 -
Martín Ojeda Orlando City Aktiv 131 / 141 40% 1 29.09.2026 -
Tadeo Allende Inter Miami CF Aktiv 124 / 115 40% 2 28.09.2026 -
Alejo Cruz Juventud Aktiv 116 / 106 40% 1 24.09.2026 -
Kévin Denkey FC Cincinnati Aktiv 132 / 142 40% 1 23.09.2026 -
Aune Heggebø West Bromwich Albion Aktiv 128 / 129 40% 1 21.09.2026 -
Dejan Joveljić Seattle Sounders Aktiv 126 / 125 40% 2 20.09.2026 -
Taty Castellanos West Ham United Aktiv 144 / 138 40% 1 18.09.2026 -
Misael Sosa Godoy Cruz Aktiv 111 / 102 40% 1 15.09.2026 -
Luciano Cosentino Wanderers Aktiv 121 / 122 40% 1 12.09.2026 -
Cheikh Sabaly Vancouver Whitecaps Aktiv 128 / 108 40% 1 10.09.2026 -
Fernando Fonseca Leixões Aktiv 109 / 105 86% 1 03.08.2026 Befürworten
Malcom Al Jazira Aktiv 149 / 153 40% 1 03.08.2026 -